Tropical Cyclones
[Index]
Main Index Home Page Stock Weather Photos Extreme Storms Discussion Storm News and Storm Chasing Reports Tropical Cyclones / Hurricanes / Typhoons Weather Data and Links Wild Fires / Bushfires Weather Observation Techniques Weather Picture Catalogue Tornado Pictures and Reports Stock Video Footage and DVDs for sale
Season 1965-1966 Tropical Cyclone MARTHA-JUDITH Track Map
Season 1965-1966 Summaries: [BoM-AU] [JTWC-AU] [JTWC-SIO] [JTWC-SPAC] [JTWC-SH]
<<- Previous TC | JTWC 1965-1966 Season | Next TC ->>

click for intensity scale information  Lat/long Grid: Show Hide

 Date Labels: Show Hide

Joint Typhoon Warning Centre Cyclone Data

Name: MARTHA-JUDITH
Number: 605 / 6626

23 Feb 1966 18:00 UTC to 07 Mar 1966 12:00 UTC

    date/time    lat    long     hPa   cat  kts
1966-02-23 18   11.0    99.0                  20          
1966-02-24 00   11.1    98.7                  15          
1966-02-24 06   11.6    98.2                  15          
1966-02-24 12   12.3    97.2                  20          
1966-02-24 18   13.0    96.6                  20          
1966-02-25 00   13.7    96.4                  25          
1966-02-25 06   14.4    96.2                  30          
1966-02-25 12   14.8    95.9                  35          
1966-02-25 18   15.3    95.4                  35          
1966-02-26 00   15.9    94.4                  25          
1966-02-26 06   16.2    93.7                  20          
1966-02-26 12   16.2    93.3                  30          
1966-02-26 18   16.1    92.8                  30          
1966-02-27 00   16.0    92.2                  20          
1966-02-27 06   15.9    91.7                  15          
1966-02-27 12   15.9    91.3                  15          
1966-02-27 18   16.1    90.9                  15          
1966-02-28 00   16.4    90.5                  30          
1966-02-28 06   16.9    90.3                  35          
1966-02-28 12   17.6    90.4                  35          
1966-02-28 18   18.3    90.6                  30          
1966-03-01 00   19.1    90.8                  20          
1966-03-01 06   19.1    91.2                  15          
1966-03-01 12   18.8    91.7                  35          
1966-03-01 18   18.5    92.3            1     40          
1966-03-02 00   18.2    92.7                  25          
1966-03-02 06   17.9    93.0                  20          
1966-03-02 12   17.9    92.6                  30          
1966-03-02 18   17.9    91.7                  35          
1966-03-03 00   17.9    90.7                  25          
1966-03-03 06   17.9    89.1                  20          
1966-03-03 12   18.2    87.1                  30          
1966-03-03 18   18.6    85.1                  35          
1966-03-04 00   19.0    83.0                  25          
1966-03-04 06   19.4    81.2                  25          
1966-03-04 12   19.8    80.7                  30          
1966-03-04 18   20.2    79.8                  30          
1966-03-05 00   20.7    78.4                  25          
1966-03-05 06   21.1    77.3                  25          
1966-03-05 12   21.0    76.4                  35          
1966-03-05 18   21.0    75.4                  35          
1966-03-06 00   21.2    74.1                  30          
1966-03-06 06   21.3    72.9                  25          
1966-03-06 12   21.5    71.9                  25          
1966-03-06 18   21.7    70.8                  25          
1966-03-07 00   22.0    69.3                  20          
1966-03-07 06   22.5    68.0                  15          
1966-03-07 12   23.0    67.1                  15          
Winds are 1-min average.

Tropical cyclone tracks developed by Michael Bath using data from the Joint Typhoon Warning Centre Best Tracks and Google Maps.


[Australian Severe Weather index] [Copyright Notice] [Email Contacts] [Search This Site] [Privacy Policy]
Document: tropical_cyclone_martha-judith.htm Updated: 18 September 2016